createdAt,value
2023-03-23T00:02:09.271Z,2.85
2023-03-23T00:07:13.801Z,2.73
2023-03-23T00:12:16.912Z,2.69
2023-03-23T00:17:19.261Z,2.60
2023-03-23T00:22:22.566Z,2.37
2023-03-23T00:27:24.892Z,2.88
2023-03-23T00:32:30.100Z,2.37
2023-03-23T00:37:32.367Z,2.65
2023-03-23T00:42:38.516Z,2.80
2023-03-23T00:47:42.883Z,2.51
2023-03-23T00:52:45.372Z,2.55
2023-03-23T00:57:49.409Z,2.54
2023-03-23T01:02:55.323Z,2.86
2023-03-23T01:07:57.602Z,2.60
2023-03-23T01:13:01.996Z,2.70
2023-03-23T01:18:05.120Z,2.83
2023-03-23T01:23:07.930Z,2.75
2023-03-23T01:28:11.877Z,2.77
2023-03-23T01:33:14.766Z,2.31
2023-03-23T01:38:17.143Z,2.23
2023-03-23T01:43:19.903Z,2.26
2023-03-23T01:48:33.506Z,2.69
2023-03-23T01:53:52.488Z,2.38
2023-03-23T01:58:56.512Z,2.67
2023-03-23T02:04:00.785Z,2.68
2023-03-23T02:09:10.530Z,2.28
2023-03-23T02:14:14.226Z,2.61
2023-03-23T02:19:46.462Z,2.62
2023-03-23T02:25:17.098Z,2.67
2023-03-23T02:30:33.651Z,2.62
2023-03-23T02:35:41.614Z,2.59
2023-03-23T02:40:47.858Z,2.55
2023-03-23T02:45:52.198Z,2.45
2023-03-23T02:50:55.372Z,2.50
2023-03-23T02:55:58.726Z,2.46
2023-03-23T03:01:26.850Z,2.50
2023-03-23T03:06:57.561Z,2.20
2023-03-23T03:12:06.459Z,2.37
2023-03-23T03:17:22.394Z,2.24
2023-03-23T03:22:29.962Z,2.29
2023-03-23T03:27:33.513Z,2.16
2023-03-23T03:32:50.130Z,1.92
2023-03-23T03:37:54.197Z,2.26
2023-03-23T03:42:56.950Z,2.24
2023-03-23T03:47:59.512Z,1.64
2023-03-23T03:53:01.823Z,1.63
2023-03-23T03:58:05.684Z,2.21
2023-03-23T04:03:28.133Z,2.23
2023-03-23T04:09:07.850Z,2.25
2023-03-23T04:14:12.480Z,2.08
2023-03-23T04:19:19.839Z,2.12
2023-03-23T04:24:56.368Z,2.32
2023-03-23T04:29:53.348Z,2.36
2023-03-23T04:35:15.899Z,2.17
2023-03-23T04:40:24.001Z,2.21
2023-03-23T04:45:43.075Z,2.29
2023-03-23T04:50:45.793Z,2.51
2023-03-23T04:55:58.003Z,2.55
2023-03-23T05:01:02.768Z,2.60
2023-03-23T05:06:20.516Z,2.66
2023-03-23T05:11:23.770Z,2.51
2023-03-23T05:16:30.660Z,2.78
2023-03-23T05:21:34.199Z,2.84
2023-03-23T05:26:36.781Z,2.89
2023-03-23T05:31:43.305Z,2.96
2023-03-23T05:36:46.507Z,3.05
2023-03-23T05:42:10.872Z,3.03
2023-03-23T05:47:21.611Z,2.86
2023-03-23T05:52:30.431Z,3.19
2023-03-23T05:57:32.890Z,3.34
2023-03-23T06:02:45.009Z,3.48
2023-03-23T06:07:51.423Z,3.71
2023-03-23T06:12:53.992Z,3.61
2023-03-23T06:18:06.772Z,3.47
2023-03-23T06:23:26.372Z,3.80
2023-03-23T06:28:29.503Z,3.93
2023-03-23T06:33:32.926Z,3.73
2023-03-23T06:38:41.383Z,4.31
2023-03-23T06:43:45.373Z,4.41
2023-03-23T06:48:51.535Z,4.62
2023-03-23T06:53:59.005Z,4.65
2023-03-23T06:59:04.893Z,3.43
2023-03-23T07:04:07.710Z,2.78
2023-03-23T07:09:25.602Z,4.93
2023-03-23T07:14:37.765Z,3.27
2023-03-23T07:19:40.634Z,3.79
2023-03-23T07:24:46.996Z,4.64
2023-03-23T07:30:01.494Z,5.77
2023-03-23T07:35:07.237Z,5.99
2023-03-23T07:40:24.905Z,6.40
2023-03-23T07:45:30.796Z,6.50
2023-03-23T07:50:34.325Z,6.69
2023-03-23T07:55:38.726Z,5.59
2023-03-23T08:01:10.158Z,7.01
2023-03-23T08:06:13.050Z,6.43
2023-03-23T08:11:32.675Z,7.20
2023-03-23T08:17:10.670Z,5.67
2023-03-23T08:22:34.095Z,7.55
2023-03-23T08:28:15.334Z,7.57
2023-03-23T08:33:47.905Z,8.18
2023-03-23T08:44:30.542Z,8.48
2023-03-23T08:49:54.022Z,7.85
2023-03-23T08:55:13.807Z,6.10
2023-03-23T09:00:45.472Z,6.01
2023-03-23T09:06:08.501Z,8.69
2023-03-23T09:11:19.839Z,8.73
2023-03-23T09:16:22.194Z,9.31
2023-03-23T09:21:26.498Z,9.24
2023-03-23T09:26:29.603Z,6.44
2023-03-23T09:31:32.861Z,9.70
2023-03-23T09:36:35.676Z,8.03
2023-03-23T09:42:12.439Z,9.82
2023-03-23T09:47:33.652Z,9.94
2023-03-23T09:52:57.827Z,10.07
2023-03-23T09:58:28.185Z,9.52
2023-03-23T10:03:41.614Z,9.54
2023-03-23T10:08:57.468Z,10.10
2023-03-23T10:14:35.670Z,10.16
2023-03-23T10:19:49.275Z,10.18
2023-03-23T10:25:17.082Z,10.29
2023-03-23T10:30:41.360Z,9.17
2023-03-23T10:36:01.794Z,10.30
2023-03-23T10:41:12.823Z,10.14
2023-03-23T10:46:32.133Z,10.33
2023-03-23T10:51:38.110Z,8.82
2023-03-23T10:56:58.781Z,7.20
2023-03-23T11:02:04.705Z,10.01
2023-03-23T11:07:17.375Z,9.23
2023-03-23T11:12:21.789Z,7.32
2023-03-23T11:17:27.787Z,9.68
2023-03-23T11:22:33.745Z,7.00
2023-03-23T11:27:37.305Z,5.09
2023-03-23T11:32:45.010Z,8.89
2023-03-23T11:37:55.336Z,5.88
2023-03-23T11:42:59.788Z,7.62
2023-03-23T11:48:08.766Z,9.68
2023-03-23T11:53:30.406Z,9.61
2023-03-23T11:58:34.375Z,5.92
2023-03-23T12:04:05.480Z,9.51
2023-03-23T12:09:50.548Z,9.47
2023-03-23T12:15:16.449Z,9.45
2023-03-23T12:20:41.165Z,9.39
2023-03-23T12:25:55.124Z,8.76
2023-03-23T12:31:20.878Z,9.27
2023-03-23T12:36:36.665Z,9.37
2023-03-23T12:42:16.723Z,9.08
2023-03-23T12:47:54.926Z,8.93
2023-03-23T12:53:18.894Z,9.30
2023-03-23T12:58:34.310Z,9.18
2023-03-23T13:03:59.647Z,9.28
2023-03-23T13:09:13.477Z,8.25
2023-03-23T13:14:43.926Z,9.28
2023-03-23T13:20:01.822Z,9.17
2023-03-23T13:25:18.593Z,8.31
2023-03-23T13:30:25.891Z,4.75
2023-03-23T13:35:40.862Z,8.39
2023-03-23T13:40:45.416Z,8.38
2023-03-23T13:45:49.366Z,9.02
2023-03-23T13:51:46.087Z,9.06
2023-03-23T13:57:04.421Z,8.60
2023-03-23T14:02:30.648Z,8.98
2023-03-23T14:07:33.043Z,8.45
2023-03-23T14:12:36.419Z,7.45
2023-03-23T14:17:44.828Z,8.82
2023-03-23T14:22:47.281Z,8.75
2023-03-23T14:27:52.537Z,8.09
2023-03-23T14:33:03.666Z,8.02
2023-03-23T14:38:06.705Z,7.84
2023-03-23T14:43:11.854Z,7.60
2023-03-23T14:48:16.004Z,8.41
2023-03-23T14:53:26.109Z,7.78
2023-03-23T14:58:28.771Z,7.45
2023-03-23T15:03:36.123Z,8.46
2023-03-23T15:08:38.610Z,7.92
2023-03-23T15:13:45.235Z,7.69
2023-03-23T15:19:02.589Z,8.10
2023-03-23T15:24:22.564Z,7.61
2023-03-23T15:29:27.567Z,7.63
2023-03-23T15:34:41.106Z,8.19
2023-03-23T15:39:43.765Z,8.12
2023-03-23T15:45:19.280Z,8.11
2023-03-23T15:50:27.708Z,8.03
2023-03-23T16:00:45.700Z,7.28
2023-03-23T16:05:48.231Z,6.92
2023-03-23T16:10:51.209Z,6.94
2023-03-23T16:15:53.633Z,4.76
2023-03-23T16:20:56.168Z,3.96
2023-03-23T16:25:58.624Z,4.70
2023-03-23T16:31:01.248Z,7.60
2023-03-23T16:36:04.569Z,7.56
2023-03-23T16:41:08.042Z,6.38
2023-03-23T16:46:11.980Z,7.47
2023-03-23T16:51:14.589Z,6.76
2023-03-23T17:01:55.067Z,7.04
2023-03-23T17:06:59.908Z,5.81
2023-03-23T17:12:02.766Z,6.88
2023-03-23T17:17:05.544Z,7.34
2023-03-23T17:22:08.375Z,6.33
2023-03-23T17:27:11.805Z,6.85
2023-03-23T17:32:14.934Z,6.53
2023-03-23T17:37:17.515Z,7.25
2023-03-23T17:42:20.220Z,6.05
2023-03-23T17:47:24.226Z,6.70
2023-03-23T17:52:26.987Z,6.62
2023-03-23T17:57:41.926Z,7.12
2023-03-23T18:02:45.278Z,6.07
2023-03-23T18:07:48.068Z,7.10
2023-03-23T18:12:51.761Z,6.31
2023-03-23T18:17:54.372Z,6.32
2023-03-23T18:22:56.916Z,6.78
2023-03-23T18:28:04.481Z,7.02
2023-03-23T18:33:08.045Z,5.41
2023-03-23T18:38:11.604Z,6.18
2023-03-23T18:43:14.366Z,5.83
2023-03-23T18:48:16.901Z,6.84
2023-03-23T18:53:20.849Z,6.97
2023-03-23T18:58:23.647Z,6.64
2023-03-23T19:03:26.281Z,6.48
2023-03-23T19:08:29.815Z,6.94
2023-03-23T19:13:44.386Z,6.93
2023-03-23T19:19:12.250Z,6.92
2023-03-23T19:24:14.680Z,6.59
2023-03-23T19:29:26.857Z,6.87
2023-03-23T19:34:31.018Z,6.86
2023-03-23T19:39:34.519Z,6.59
2023-03-23T19:44:37.401Z,6.81
2023-03-23T19:49:40.012Z,6.17
2023-03-23T19:54:42.589Z,5.50
2023-03-23T19:59:45.176Z,6.79
2023-03-23T20:04:48.558Z,6.05
2023-03-23T20:09:51.860Z,5.92
2023-03-23T20:14:54.241Z,5.05
2023-03-23T20:19:57.588Z,5.93
2023-03-23T20:25:00.624Z,6.28
2023-03-23T20:30:04.774Z,6.75
2023-03-23T20:35:10.270Z,5.40
2023-03-23T20:40:15.381Z,6.72
2023-03-23T20:45:18.915Z,5.90
2023-03-23T20:50:21.356Z,4.09
2023-03-23T20:55:24.127Z,6.67
2023-03-23T21:00:26.920Z,4.37
2023-03-23T21:05:29.360Z,6.50
2023-03-23T21:10:31.866Z,6.25
2023-03-23T21:15:34.331Z,5.12
2023-03-23T21:20:38.051Z,4.92
2023-03-23T21:25:42.443Z,5.66
2023-03-23T21:30:46.229Z,6.24
2023-03-23T21:35:48.880Z,5.88
2023-03-23T21:40:51.397Z,5.73
2023-03-23T21:45:57.570Z,5.76
2023-03-23T21:51:06.660Z,6.47
2023-03-23T21:56:10.505Z,6.43
2023-03-23T22:01:13.392Z,4.00
2023-03-23T22:06:19.230Z,5.81
2023-03-23T22:11:25.193Z,2.93
2023-03-23T22:16:27.931Z,3.53
2023-03-23T22:21:46.101Z,5.99
2023-03-23T22:26:48.680Z,6.36
2023-03-23T22:31:51.662Z,5.71
2023-03-23T22:36:54.139Z,5.76
2023-03-23T22:41:56.972Z,4.43
2023-03-23T22:46:59.555Z,5.66
2023-03-23T22:52:02.002Z,4.89
2023-03-23T22:57:04.521Z,5.63
2023-03-23T23:02:07.013Z,6.30
2023-03-23T23:07:14.588Z,6.28
2023-03-23T23:12:18.597Z,4.33
2023-03-23T23:17:21.223Z,2.44
2023-03-23T23:22:27.392Z,4.72
2023-03-23T23:27:29.864Z,5.61
2023-03-23T23:32:34.116Z,4.48
2023-03-23T23:37:36.584Z,6.27
2023-03-23T23:42:39.131Z,3.68
2023-03-23T23:47:42.206Z,5.88
2023-03-23T23:52:45.503Z,5.22
2023-03-23T23:57:49.156Z,5.84
